Time;durP1;ratioP1;P1;durP2;ratioP2;P2;SDS_P1;SDS_P2;PMS_P1;PMS_P2;Temp;Humidity;BMP_temperature;BMP_pressure;BME280_temperature;BME280_humidity;BME280_pressure;Samples;Min_cycle;Max_cycle;Signal;HPM_P1;HPM_P2
2023/09/22 00:01:01;;;;;;;8.33;6.40;;;;;;;20.34;70.17;97058.66;5049878;28;20662;-80
2023/09/22 00:03:31;;;;;;;11.17;6.00;;;;;;;20.50;69.38;97062.50;5052925;28;20250;-77
2023/09/22 00:05:58;;;;;;;7.70;5.87;;;;;;;20.57;69.19;97070.69;5048219;28;20739;-76
2023/09/22 00:08:25;;;;;;;8.37;6.60;;;;;;;20.51;69.36;97081.72;5046479;28;20730;-76
2023/09/22 00:10:53;;;;;;;10.07;5.97;;;;;;;20.49;69.38;97081.88;5047619;28;20590;-75
2023/09/22 00:13:21;;;;;;;10.10;5.90;;;;;;;20.45;69.41;97061.19;5046340;28;20256;-75
2023/09/22 00:15:48;;;;;;;9.77;6.43;;;;;;;20.64;69.21;97085.00;5047436;28;20217;-77
2023/09/22 00:18:15;;;;;;;8.87;6.30;;;;;;;20.70;68.93;97072.16;5046777;28;20221;-76
2023/09/22 00:20:42;;;;;;;10.60;6.33;;;;;;;20.65;69.12;97073.53;5047152;28;20632;-76
2023/09/22 00:23:09;;;;;;;9.77;6.23;;;;;;;20.75;68.49;97069.94;5047951;28;20623;-76
2023/09/22 00:25:36;;;;;;;11.60;6.10;;;;;;;20.46;69.39;97065.53;5046595;28;20198;-84
2023/09/22 00:28:04;;;;;;;9.17;6.37;;;;;;;20.49;69.21;97083.66;5048801;28;20198;-78
2023/09/22 00:30:31;;;;;;;14.70;7.43;;;;;;;20.11;70.48;97086.88;5047153;28;20209;-78
2023/09/22 00:32:58;;;;;;;10.03;6.80;;;;;;;20.15;70.46;97083.81;5049500;28;20186;-77
2023/09/22 00:35:25;;;;;;;11.57;6.93;;;;;;;20.32;70.15;97081.63;5045564;28;20296;-77
2023/09/22 00:37:53;;;;;;;8.47;6.40;;;;;;;20.39;70.21;97074.88;5045397;28;20236;-76
2023/09/22 00:40:20;;;;;;;10.77;6.30;;;;;;;20.47;69.46;97094.31;5045737;28;20657;-80
2023/09/22 00:42:47;;;;;;;9.80;6.07;;;;;;;20.33;69.72;97088.56;5048119;28;20225;-79
2023/09/22 00:45:17;;;;;;;8.57;6.40;;;;;;;20.35;69.59;97087.47;5051335;28;20205;-76
2023/09/22 00:47:44;;;;;;;12.53;6.67;;;;;;;20.31;70.02;97099.22;5046365;28;20208;-77
2023/09/22 00:50:11;;;;;;;7.97;6.27;;;;;;;20.12;69.61;97078.00;5049913;28;20209;-76
2023/09/22 00:52:41;;;;;;;8.60;6.40;;;;;;;20.25;69.69;97094.47;5050021;28;20681;-77
2023/09/22 00:55:09;;;;;;;8.07;6.27;;;;;;;20.21;69.86;97093.91;5049432;28;20194;-76
2023/09/22 00:57:36;;;;;;;7.53;5.63;;;;;;;19.93;70.65;97097.09;5050870;28;20745;-77
2023/09/22 01:00:04;;;;;;;9.23;6.30;;;;;;;19.58;72.23;97090.44;5051058;28;20724;-78
2023/09/22 01:02:31;;;;;;;6.70;6.00;;;;;;;19.66;71.95;97082.75;5050645;28;20334;-77
2023/09/22 01:04:59;;;;;;;8.10;6.10;;;;;;;19.60;72.17;97086.69;5049832;28;20755;-76
2023/09/22 01:07:30;;;;;;;8.07;6.10;;;;;;;19.64;71.86;97080.22;5050875;28;20209;-77
2023/09/22 01:10:09;;;;;;;11.93;6.33;;;;;;;19.75;71.63;97088.09;5049951;28;20248;-82
2023/09/22 01:12:37;;;;;;;11.77;6.93;;;;;;;19.31;72.77;97083.75;5049768;28;20200;-75
2023/09/22 01:15:05;;;;;;;9.33;6.53;;;;;;;19.02;74.21;97085.22;5050124;28;20209;-76
2023/09/22 01:17:32;;;;;;;9.83;6.57;;;;;;;18.99;74.52;97061.84;5047295;28;20244;-76
2023/09/22 01:19:59;;;;;;;8.17;6.00;;;;;;;18.90;75.34;97059.94;5049921;28;20688;-76
2023/09/22 01:22:26;;;;;;;8.00;6.47;;;;;;;19.09;74.04;97062.78;5047554;28;20269;-76
2023/09/22 01:24:56;;;;;;;9.23;6.83;;;;;;;18.98;75.07;97062.78;5050104;28;20215;-77
2023/09/22 01:27:23;;;;;;;10.57;6.50;;;;;;;19.05;73.98;97048.25;5049414;28;20204;-77
2023/09/22 01:29:50;;;;;;;11.40;6.57;;;;;;;19.19;74.41;97068.97;5049224;28;20203;-75
2023/09/22 01:32:17;;;;;;;10.33;6.13;;;;;;;19.40;73.88;97069.94;5050020;28;20209;-81
2023/09/22 01:34:45;;;;;;;9.47;6.90;;;;;;;19.35;73.63;97058.94;5047344;28;20208;-75
2023/09/22 01:37:12;;;;;;;11.43;7.23;;;;;;;19.57;72.82;97054.59;5037251;28;20287;-76
2023/09/22 01:39:40;;;;;;;10.33;6.90;;;;;;;19.63;72.37;97038.31;5027592;28;20284;-75
2023/09/22 01:42:09;;;;;;;10.53;7.37;;;;;;;19.29;73.67;97035.75;5029636;28;20797;-75
2023/09/22 01:44:36;;;;;;;10.20;7.37;;;;;;;18.94;75.00;97035.13;5027951;28;20575;-76
2023/09/22 01:47:03;;;;;;;9.53;7.00;;;;;;;19.21;74.24;97050.47;5029117;28;20213;-75
2023/09/22 01:49:31;;;;;;;7.20;6.13;;;;;;;19.35;73.93;97052.88;5029459;28;20206;-76
2023/09/22 01:51:58;;;;;;;9.40;7.00;;;;;;;19.44;73.37;97060.00;5010432;28;20698;-76
2023/09/22 01:54:26;;;;;;;10.07;6.33;;;;;;;19.60;72.90;97049.09;5029429;28;20214;-75
2023/09/22 01:56:53;;;;;;;8.53;6.33;;;;;;;19.63;72.46;97057.56;5026726;28;20248;-76
2023/09/22 01:59:22;;;;;;;8.13;6.10;;;;;;;19.63;72.03;97054.09;5028178;28;20682;-76
2023/09/22 02:01:49;;;;;;;8.30;6.20;;;;;;;19.68;72.33;97072.94;5027945;28;20590;-75
2023/09/22 02:04:17;;;;;;;13.97;7.23;;;;;;;19.60;71.88;97080.63;5027966;28;20690;-75
2023/09/22 02:06:44;;;;;;;9.43;6.50;;;;;;;19.55;71.91;97078.38;5028907;28;20252;-76
2023/09/22 02:09:11;;;;;;;9.97;6.20;;;;;;;19.44;72.23;97062.63;5027001;28;20554;-76
2023/09/22 02:11:40;;;;;;;14.53;7.00;;;;;;;19.27;73.17;97074.44;5028107;28;20288;-76
2023/09/22 02:14:07;;;;;;;9.23;7.23;;;;;;;19.20;73.17;97073.28;5026538;28;20225;-77
2023/09/22 02:16:35;;;;;;;11.13;7.33;;;;;;;19.12;73.38;97073.06;5028806;28;20242;-76
2023/09/22 02:19:02;;;;;;;8.23;7.27;;;;;;;18.49;75.76;97078.91;5026841;28;20275;-76
2023/09/22 02:21:29;;;;;;;10.87;7.07;;;;;;;17.82;78.16;97077.88;5028407;28;20668;-76
2023/09/22 02:24:16;;;;;;;10.43;7.00;;;;;;;17.36;80.45;97066.44;5027777;28;20209;-76
2023/09/22 02:26:43;;;;;;;10.57;7.43;;;;;;;17.59;80.04;97093.59;5026249;28;20212;-77
2023/09/22 02:29:10;;;;;;;11.53;7.10;;;;;;;17.64;79.56;97081.81;5043797;28;20200;-77
2023/09/22 02:31:38;;;;;;;10.23;7.17;;;;;;;17.63;80.04;97098.50;5047536;28;20196;-76
2023/09/22 02:34:05;;;;;;;10.53;7.63;;;;;;;17.62;80.36;97091.56;5048715;28;20281;-77
2023/09/22 02:36:32;;;;;;;10.40;8.23;;;;;;;17.19;82.65;97090.34;5048175;28;20214;-76
2023/09/22 02:39:00;;;;;;;14.37;7.73;;;;;;;17.03;83.22;97095.00;5047610;28;20192;-76
2023/09/22 02:41:27;;;;;;;11.23;7.87;;;;;;;17.14;83.67;97092.47;5048491;28;20188;-77
2023/09/22 02:43:54;;;;;;;10.27;7.60;;;;;;;16.94;84.76;97067.69;5047062;28;20673;-77
2023/09/22 02:46:21;;;;;;;10.87;7.67;;;;;;;17.09;85.52;97097.19;5048502;28;20685;-77
2023/09/22 02:48:48;;;;;;;11.23;8.10;;;;;;;17.32;84.41;97092.94;5047465;28;21135;-77
2023/09/22 02:51:15;;;;;;;11.17;8.20;;;;;;;17.42;83.73;97080.84;5047055;28;20661;-77
2023/09/22 02:53:43;;;;;;;11.40;7.80;;;;;;;17.52;82.80;97087.13;5046481;28;20206;-76
2023/09/22 02:56:10;;;;;;;12.00;8.40;;;;;;;17.85;81.31;97098.59;5029868;28;20576;-76
2023/09/22 02:58:37;;;;;;;11.07;7.53;;;;;;;18.27;79.42;97091.09;5047954;28;20238;-75
2023/09/22 03:01:08;;;;;;;12.57;7.47;;;;;;;18.15;79.79;97089.41;5047197;28;20645;-76
2023/09/22 03:03:42;;;;;;;9.57;8.47;;;;;;;17.91;80.41;97086.81;5046802;28;20758;-76
2023/09/22 03:06:11;;;;;;;8.87;7.63;;;;;;;17.87;80.46;97069.66;5045291;28;20678;-78
2023/09/22 03:08:39;;;;;;;14.63;7.77;;;;;;;17.80;80.97;97071.88;5046555;28;20192;-77
2023/09/22 03:11:07;;;;;;;10.30;7.27;;;;;;;17.99;80.04;97070.53;5045943;28;20692;-76
2023/09/22 03:13:34;;;;;;;9.93;7.30;;;;;;;18.25;79.30;97053.69;5046277;28;20745;-78
2023/09/22 03:16:01;;;;;;;23.23;8.17;;;;;;;18.62;77.22;97070.91;5047817;28;20638;-76
2023/09/22 03:18:28;;;;;;;19.33;8.20;;;;;;;18.70;76.54;97058.03;5044983;28;20224;-76
2023/09/22 03:20:55;;;;;;;11.37;7.43;;;;;;;18.92;76.11;97067.72;5029997;28;20200;-75
2023/09/22 03:23:23;;;;;;;11.67;7.47;;;;;;;18.96;75.73;97069.13;5046653;28;20259;-77
2023/09/22 03:25:51;;;;;;;9.00;7.13;;;;;;;18.98;75.53;97075.91;5046713;28;20218;-76
2023/09/22 03:28:19;;;;;;;11.70;7.10;;;;;;;19.04;75.32;97085.94;5046268;28;20640;-77
2023/09/22 03:30:48;;;;;;;10.50;6.77;;;;;;;19.16;74.78;97090.25;5031242;28;20199;-77
2023/09/22 03:33:15;;;;;;;9.10;6.60;;;;;;;19.13;74.73;97095.72;5047480;28;20197;-77
2023/09/22 03:35:42;;;;;;;12.07;7.50;;;;;;;19.09;74.91;97094.28;5047396;28;20197;-78
2023/09/22 03:38:09;;;;;;;10.23;6.93;;;;;;;18.98;74.86;97098.72;5049965;28;20781;-81
2023/09/22 03:40:41;;;;;;;9.17;6.80;;;;;;;18.98;74.65;97085.59;5045963;28;20250;-78
2023/09/22 03:43:11;;;;;;;13.83;7.43;;;;;;;19.11;74.49;97115.16;5047727;28;20295;-81
2023/09/22 03:45:39;;;;;;;9.73;6.73;;;;;;;18.95;74.46;97107.66;5052754;28;20653;-82
2023/09/22 03:48:08;;;;;;;10.07;7.00;;;;;;;18.00;77.69;97108.88;5055709;28;20206;-78
2023/09/22 03:50:36;;;;;;;14.03;7.83;;;;;;;17.83;78.63;97099.66;5054370;28;20200;-76
2023/09/22 03:53:03;;;;;;;12.43;8.07;;;;;;;17.45;81.21;97102.44;5055626;28;20208;-79
2023/09/22 03:55:32;;;;;;;11.57;8.13;;;;;;;17.54;81.81;97096.53;5054971;28;20223;-76
2023/09/22 03:58:00;;;;;;;11.97;7.93;;;;;;;17.55;81.72;97086.91;5051564;28;20232;-79
2023/09/22 04:00:28;;;;;;;13.47;8.10;;;;;;;17.85;80.61;97084.66;5057277;28;20199;-77
2023/09/22 04:02:56;;;;;;;10.73;7.83;;;;;;;17.85;80.03;97077.63;5054480;28;20220;-81
2023/09/22 04:05:23;;;;;;;12.77;8.20;;;;;;;17.91;80.49;97078.97;5050922;28;20234;-76
2023/09/22 04:07:51;;;;;;;13.57;8.53;;;;;;;18.06;79.76;97077.81;5046825;28;20229;-75
2023/09/22 04:10:20;;;;;;;11.50;7.40;;;;;;;18.32;78.51;97079.31;5045020;28;20196;-76
2023/09/22 04:12:48;;;;;;;11.00;7.87;;;;;;;18.51;78.29;97063.03;5046675;28;20211;-76
2023/09/22 04:15:15;;;;;;;14.93;8.63;;;;;;;18.78;76.70;97060.91;5046459;28;20196;-76
2023/09/22 04:17:45;;;;;;;9.63;7.83;;;;;;;19.05;75.78;97069.25;5046913;28;20247;-76
2023/09/22 04:20:13;;;;;;;11.97;7.90;;;;;;;19.15;75.32;97070.19;5046869;28;20213;-76
2023/09/22 04:22:44;;;;;;;10.70;7.20;;;;;;;18.99;74.98;97061.84;5046186;28;20244;-76
2023/09/22 04:25:13;;;;;;;13.00;8.13;;;;;;;19.16;75.02;97060.50;5049283;28;20287;-76
2023/09/22 04:27:43;;;;;;;14.00;8.93;;;;;;;19.07;75.38;97063.84;5049888;28;20780;-76
2023/09/22 04:30:15;;;;;;;15.97;10.60;;;;;;;19.07;75.25;97066.47;5050793;28;20208;-76
2023/09/22 04:32:43;;;;;;;10.90;7.73;;;;;;;19.43;74.40;97077.53;5049648;28;20360;-76
2023/09/22 04:35:11;;;;;;;16.97;7.90;;;;;;;19.57;73.26;97089.59;5050832;28;20204;-75
2023/09/22 04:37:40;;;;;;;15.00;10.83;;;;;;;19.61;72.65;97088.38;5050858;28;20373;-78
2023/09/22 04:40:23;;;;;;;47.27;36.37;;;;;;;19.41;73.49;97092.59;5049972;28;20203;-77
2023/09/22 04:42:51;;;;;;;23.57;14.47;;;;;;;19.54;73.54;97083.75;5049235;28;20856;-78
2023/09/22 04:45:21;;;;;;;11.93;7.93;;;;;;;19.82;72.36;97093.69;5038198;28;20236;-75
2023/09/22 04:47:51;;;;;;;9.60;7.10;;;;;;;19.79;71.90;97070.25;5031207;28;20305;-76
2023/09/22 04:50:19;;;;;;;12.47;7.97;;;;;;;19.80;72.51;97085.09;5029809;28;20198;-80
2023/09/22 04:52:49;;;;;;;11.10;7.67;;;;;;;19.56;72.97;97095.78;5030266;28;20198;-76
2023/09/22 04:55:19;;;;;;;11.17;6.93;;;;;;;19.33;73.91;97087.13;5047845;28;20205;-78
2023/09/22 04:57:48;;;;;;;12.87;7.53;;;;;;;18.97;74.73;97089.16;5052543;28;20224;-77
2023/09/22 05:00:24;;;;;;;14.07;7.87;;;;;;;18.89;75.16;97066.16;5045879;28;20720;-77
2023/09/22 05:02:52;;;;;;;10.70;7.90;;;;;;;18.99;75.43;97095.97;5049787;28;20204;-83
2023/09/22 05:05:22;;;;;;;10.67;7.20;;;;;;;19.16;75.25;97100.75;5054643;28;20204;-77
2023/09/22 05:07:50;;;;;;;11.87;8.10;;;;;;;19.30;73.86;97083.88;5052731;28;20563;-75
2023/09/22 05:10:17;;;;;;;12.07;7.93;;;;;;;19.63;73.35;97104.84;5053152;28;20200;-79
2023/09/22 05:12:45;;;;;;;12.00;7.43;;;;;;;19.75;72.67;97111.72;5054767;28;20696;-78
2023/09/22 05:15:12;;;;;;;10.63;7.30;;;;;;;19.63;72.86;97101.38;5050968;28;20212;-76
2023/09/22 05:17:40;;;;;;;15.10;7.67;;;;;;;19.60;72.77;97091.94;5050446;28;20795;-77
2023/09/22 05:20:13;;;;;;;9.60;6.53;;;;;;;19.63;73.25;97109.25;5050962;28;20546;-76
2023/09/22 05:22:42;;;;;;;9.00;6.70;;;;;;;19.47;74.19;97109.66;5045316;28;20208;-77
2023/09/22 05:25:10;;;;;;;10.50;7.37;;;;;;;19.34;74.93;97101.94;5047893;28;20703;-84
2023/09/22 05:27:40;;;;;;;13.80;7.37;;;;;;;19.17;75.74;97109.44;5048308;28;20220;-77
2023/09/22 05:30:09;;;;;;;12.40;7.63;;;;;;;19.61;75.26;97122.53;5049104;28;20204;-75
2023/09/22 05:32:37;;;;;;;10.13;6.33;;;;;;;20.05;nan;97117.09;5047556;28;20291;-75
2023/09/22 05:35:04;;;;;;;8.83;6.97;;;;;;;19.91;73.61;97121.81;5049028;28;20282;-76
2023/09/22 05:37:32;;;;;;;12.57;7.37;;;;;;;19.63;74.49;97114.50;5046587;28;20312;-77
2023/09/22 05:40:00;;;;;;;9.10;6.87;;;;;;;19.86;74.44;97129.25;5049053;28;20207;-75
2023/09/22 05:42:28;;;;;;;10.77;7.03;;;;;;;19.35;76.45;97100.97;5049710;28;20669;-75
2023/09/22 05:44:55;;;;;;;10.20;7.13;;;;;;;19.67;75.88;97115.94;5049093;28;20225;-76
2023/09/22 05:47:23;;;;;;;8.17;6.60;;;;;;;19.52;76.33;97125.88;5048740;28;20595;-77
2023/09/22 05:49:50;;;;;;;10.37;7.07;;;;;;;19.61;76.17;97138.28;5048001;28;20185;-77
2023/09/22 05:52:18;;;;;;;8.17;6.67;;;;;;;19.62;75.95;97139.94;5049050;28;20202;-79
2023/09/22 05:54:47;;;;;;;9.13;7.40;;;;;;;19.53;76.01;97116.22;5048506;28;20320;-76
2023/09/22 05:57:16;;;;;;;11.17;7.40;;;;;;;19.85;74.84;97132.84;5049710;28;20876;-76
2023/09/22 05:59:44;;;;;;;8.53;6.60;;;;;;;20.08;74.72;97148.41;5050308;28;20723;-79
2023/09/22 06:02:11;;;;;;;9.87;6.60;;;;;;;20.20;72.83;97131.66;5048237;28;20547;-76
2023/09/22 06:04:38;;;;;;;10.93;7.03;;;;;;;20.21;73.30;97145.66;5046388;28;20584;-79
2023/09/22 06:07:14;;;;;;;14.53;8.10;;;;;;;20.58;72.41;97138.16;5046756;28;20191;-78
2023/09/22 06:09:41;;;;;;;12.47;7.50;;;;;;;20.70;71.76;97137.13;5047889;28;20197;-77
2023/09/22 06:12:08;;;;;;;10.33;6.07;;;;;;;21.20;70.53;97162.63;5045256;28;20233;-77
2023/09/22 06:14:35;;;;;;;9.53;6.10;;;;;;;21.44;69.60;97149.13;5048786;28;20194;-80
2023/09/22 06:17:02;;;;;;;8.17;6.27;;;;;;;21.38;69.70;97168.94;5049969;28;20227;-80
2023/09/22 06:19:29;;;;;;;12.37;6.93;;;;;;;21.03;70.61;97161.44;5055034;28;20232;-80
2023/09/22 06:21:57;;;;;;;12.73;7.20;;;;;;;21.04;70.32;97133.31;5051503;28;20247;-78
2023/09/22 06:24:25;;;;;;;9.60;6.57;;;;;;;21.16;71.10;97163.88;5049364;28;20190;-77
2023/09/22 06:26:53;;;;;;;11.93;7.30;;;;;;;21.21;70.82;97163.44;5052031;28;20284;-77
2023/09/22 06:29:20;;;;;;;14.93;7.83;;;;;;;21.43;70.30;97158.00;5049269;28;20205;-78
2023/09/22 06:31:48;;;;;;;11.17;6.60;;;;;;;21.45;70.42;97161.34;5047323;28;21159;-81
2023/09/22 06:34:15;;;;;;;12.73;7.10;;;;;;;21.10;71.82;97164.41;5047949;28;20206;-81
2023/09/22 06:36:46;;;;;;;11.40;6.30;;;;;;;21.08;71.97;97153.16;5049167;28;20654;-81
2023/09/22 06:39:13;;;;;;;10.93;6.70;;;;;;;21.23;71.73;97172.91;5050300;28;20269;-84
2023/09/22 06:41:41;;;;;;;8.13;5.73;;;;;;;21.71;70.50;97171.28;5048993;28;20209;-79
2023/09/22 06:44:10;;;;;;;10.13;6.07;;;;;;;22.13;68.64;97169.28;5033253;28;20708;-80
2023/09/22 06:46:37;;;;;;;16.13;7.97;;;;;;;22.54;67.63;97173.44;5031384;28;20222;-78
2023/09/22 06:49:07;;;;;;;7.63;5.70;;;;;;;22.78;66.55;97168.56;5048151;28;20678;-83
2023/09/22 06:51:37;;;;;;;9.60;6.30;;;;;;;22.74;67.08;97169.00;5047509;28;20195;-78
2023/09/22 06:54:04;;;;;;;11.77;7.77;;;;;;;22.24;68.67;97161.22;5048054;28;20199;-78
2023/09/22 06:56:35;;;;;;;9.97;5.50;;;;;;;22.25;68.25;97156.78;5047155;28;20220;-77
2023/09/22 06:59:16;;;;;;;11.03;5.57;;;;;;;22.39;68.44;97191.50;5045739;28;20231;-77
2023/09/22 07:01:43;;;;;;;6.90;5.57;;;;;;;22.39;68.42;97185.38;5047952;28;20666;-78
2023/09/22 07:04:13;;;;;;;11.60;5.80;;;;;;;22.47;67.76;97194.28;5046400;28;20204;-77
2023/09/22 07:06:41;;;;;;;7.47;5.93;;;;;;;22.54;67.51;97190.13;5047751;28;20197;-78
2023/09/22 07:09:11;;;;;;;12.13;7.70;;;;;;;22.65;66.83;97170.66;5045359;28;20212;-78
2023/09/22 07:11:40;;;;;;;8.20;5.77;;;;;;;22.76;66.45;97182.88;5047913;28;20303;-80
2023/09/22 07:14:08;;;;;;;9.60;6.67;;;;;;;22.80;66.95;97184.25;5047527;28;20662;-84
2023/09/22 07:16:36;;;;;;;9.57;6.27;;;;;;;22.85;67.14;97187.31;5044848;28;20257;-81
2023/09/22 07:19:04;;;;;;;10.53;6.77;;;;;;;22.98;66.12;97186.03;5047777;28;20223;-80
2023/09/22 07:21:31;;;;;;;6.87;5.47;;;;;;;23.05;65.66;97191.59;5046172;28;20227;-85
2023/09/22 07:23:58;;;;;;;7.47;5.47;;;;;;;22.94;65.54;97187.28;5045428;28;20254;-81
2023/09/22 07:27:06;;;;;;;11.60;7.37;;;;;;;23.16;64.87;97189.59;5045925;28;20667;-83
2023/09/22 07:29:51;;;;;;;9.53;5.83;;;;;;;23.16;65.08;97191.41;5043519;28;20190;-83
2023/09/22 07:32:19;;;;;;;12.60;5.93;;;;;;;23.41;63.60;97196.91;5045520;28;20232;-84
2023/09/22 07:34:48;;;;;;;7.47;5.70;;;;;;;23.31;62.61;97137.09;5044748;28;20196;-80
2023/09/22 07:37:16;;;;;;;7.67;5.20;;;;;;;23.97;62.43;97191.47;5045827;28;20215;-80
2023/09/22 07:39:50;;;;;;;6.27;5.10;;;;;;;23.75;62.56;97161.97;5044516;28;20803;-83
2023/09/22 07:42:17;;;;;;;7.83;5.70;;;;;;;23.82;62.75;97192.94;5046023;28;20205;-82
2023/09/22 07:44:45;;;;;;;8.20;5.17;;;;;;;23.48;63.05;97154.03;5046473;28;20195;-82
2023/09/22 07:47:14;;;;;;;9.63;6.30;;;;;;;23.83;62.04;97180.56;5047728;28;20619;-83
2023/09/22 07:49:44;;;;;;;15.57;7.43;;;;;;;24.12;60.89;97160.91;5046318;28;20592;-82
2023/09/22 07:52:13;;;;;;;16.10;7.23;;;;;;;24.49;59.88;97170.50;5044347;28;20347;-77
2023/09/22 07:54:40;;;;;;;7.07;5.33;;;;;;;24.55;59.27;97176.03;5045322;28;20195;-81
2023/09/22 07:57:07;;;;;;;11.10;6.07;;;;;;;24.68;58.84;97172.97;5046527;28;20196;-77
2023/09/22 07:59:34;;;;;;;8.00;5.53;;;;;;;24.68;59.06;97172.97;5045779;28;20763;-76
2023/09/22 08:02:02;;;;;;;10.90;6.27;;;;;;;24.80;59.08;97171.78;5049872;28;20200;-76
2023/09/22 08:04:30;;;;;;;9.93;6.57;;;;;;;24.73;57.77;97139.75;5048059;28;20203;-77
2023/09/22 08:07:00;;;;;;;10.53;6.27;;;;;;;24.98;57.68;97175.19;5050354;28;20204;-77
2023/09/22 08:09:28;;;;;;;9.97;6.53;;;;;;;25.18;57.22;97165.25;5049350;28;20207;-80
2023/09/22 08:11:55;;;;;;;10.03;5.90;;;;;;;25.37;55.94;97167.66;5049537;28;20196;-80
2023/09/22 08:14:23;;;;;;;12.00;6.20;;;;;;;25.34;54.93;97166.16;5050438;28;20220;-76
2023/09/22 08:17:12;;;;;;;17.47;8.50;;;;;;;25.59;54.79;97160.00;5048669;28;20225;-77
2023/09/22 08:19:39;;;;;;;7.03;4.87;;;;;;;25.52;53.33;97145.72;5050331;28;20795;-78
2023/09/22 08:22:06;;;;;;;11.07;6.50;;;;;;;25.70;52.88;97157.03;5048969;28;20210;-77
2023/09/22 08:24:34;;;;;;;8.97;5.50;;;;;;;25.66;52.64;97160.19;5049967;28;20205;-76
2023/09/22 08:27:41;;;;;;;8.10;4.90;;;;;;;25.96;52.36;97151.66;5049449;28;20199;-75
2023/09/22 08:30:23;;;;;;;10.30;5.70;;;;;;;25.75;52.11;97149.44;5044981;28;20196;-75
2023/09/22 08:32:51;;;;;;;10.03;5.10;;;;;;;25.65;51.82;97126.69;5038783;28;20237;-77
2023/09/22 08:35:18;;;;;;;6.57;4.50;;;;;;;25.83;52.12;97160.09;5044596;28;20202;-79
2023/09/22 08:37:46;;;;;;;7.20;4.83;;;;;;;26.08;51.93;97149.53;5049262;28;20651;-77
2023/09/22 08:40:15;;;;;;;9.83;5.67;;;;;;;26.27;52.06;97159.88;5047333;28;20276;-76
2023/09/22 08:42:51;;;;;;;8.97;5.00;;;;;;;26.29;51.16;97145.44;5045258;28;20708;-80
2023/09/22 08:45:20;;;;;;;6.13;4.70;;;;;;;26.11;50.77;97152.69;5047344;28;20290;-76
2023/09/22 08:47:49;;;;;;;5.30;4.23;;;;;;;26.25;49.08;97149.44;5048179;28;20197;-79
2023/09/22 08:50:19;;;;;;;8.73;5.27;;;;;;;26.16;50.59;97146.91;5047387;28;20206;-77
2023/09/22 08:52:51;;;;;;;10.37;5.00;;;;;;;26.36;50.33;97142.94;5048544;28;20350;-78
2023/09/22 08:55:20;;;;;;;6.00;4.03;;;;;;;26.42;49.44;97140.44;5046449;28;20206;-81
2023/09/22 08:57:48;;;;;;;10.00;5.60;;;;;;;26.69;48.83;97139.28;5048533;28;20202;-76
2023/09/22 09:00:26;;;;;;;9.63;5.77;;;;;;;26.81;48.54;97127.34;5047374;28;20233;-76
2023/09/22 09:02:59;;;;;;;11.97;5.00;;;;;;;26.98;48.40;97133.44;5049303;28;20190;-81
2023/09/22 09:05:30;;;;;;;4.70;4.20;;;;;;;26.78;48.55;97126.84;5046315;28;20223;-78
2023/09/22 09:08:17;;;;;;;10.23;5.20;;;;;;;26.63;49.16;97118.69;5048350;28;20204;-75
2023/09/22 09:10:47;;;;;;;9.77;5.20;;;;;;;26.21;49.62;97118.03;5044065;28;20229;-82
2023/09/22 09:13:20;;;;;;;9.03;4.97;;;;;;;26.36;49.68;97127.00;5045012;28;20597;-74
2023/09/22 09:15:49;;;;;;;8.73;5.07;;;;;;;26.45;49.56;97120.69;5047724;28;20193;-78
2023/09/22 09:18:19;;;;;;;7.57;4.60;;;;;;;26.48;49.37;97123.03;5046900;28;20250;-74
2023/09/22 09:20:48;;;;;;;9.23;5.30;;;;;;;26.51;49.29;97114.72;5051346;28;20190;-81
2023/09/22 09:23:18;;;;;;;12.73;5.87;;;;;;;26.86;48.38;97119.69;5064221;28;20224;-83
2023/09/22 09:25:49;;;;;;;27.67;11.53;;;;;;;27.03;48.13;97115.19;5056992;28;20206;-76
2023/09/22 09:28:19;;;;;;;84.00;34.27;;;;;;;26.72;47.72;97056.59;5050924;28;20293;-80
2023/09/22 09:30:50;;;;;;;64.43;28.40;;;;;;;27.32;47.94;97115.41;5048305;28;20205;-82
2023/09/22 09:33:27;;;;;;;42.13;24.43;;;;;;;27.46;47.24;97116.56;5049575;28;20292;-82
2023/09/22 09:35:55;;;;;;;27.90;13.87;;;;;;;27.38;47.00;97114.75;5048203;28;20190;-81
2023/09/22 09:38:29;;;;;;;38.93;18.40;;;;;;;27.36;47.26;97114.94;5048065;28;20228;-78
2023/09/22 09:40:58;;;;;;;26.70;12.37;;;;;;;27.22;47.96;97106.81;5048654;28;20204;-74
2023/09/22 09:43:26;;;;;;;20.70;10.10;;;;;;;27.46;47.69;97109.41;5047243;28;20672;-75
2023/09/22 09:45:57;;;;;;;60.37;25.87;;;;;;;27.60;47.45;97084.72;5048864;28;20202;-77
2023/09/22 09:48:27;;;;;;;17.70;9.37;;;;;;;27.77;47.21;97096.09;5047391;28;20284;-74
2023/09/22 09:50:57;;;;;;;29.73;13.77;;;;;;;27.93;47.11;97093.34;5048069;28;20204;-78
2023/09/22 09:53:44;;;;;;;13.30;7.43;;;;;;;28.07;46.18;97087.28;5048533;28;20255;-78
2023/09/22 09:56:13;;;;;;;12.23;7.30;;;;;;;27.88;46.05;97079.75;5044897;28;20623;-78
2023/09/22 09:58:42;;;;;;;9.27;4.80;;;;;;;27.64;46.56;97079.88;5050667;28;20280;-79
2023/09/22 10:01:09;;;;;;;9.87;6.03;;;;;;;27.87;45.97;97080.72;5047327;28;20284;-81
2023/09/22 10:03:42;;;;;;;15.20;7.10;;;;;;;28.00;45.87;97086.34;5046388;28;20198;-76
2023/09/22 10:06:13;;;;;;;13.97;6.93;;;;;;;28.11;45.46;97080.59;5045161;28;20648;-80
2023/09/22 10:08:41;;;;;;;11.97;5.70;;;;;;;28.17;45.67;97074.56;5030740;28;20222;-80
2023/09/22 10:11:13;;;;;;;9.27;4.80;;;;;;;28.07;45.07;97063.31;5045237;28;20195;-84
2023/09/22 10:13:41;;;;;;;6.60;3.97;;;;;;;28.13;45.25;97073.28;5028466;28;20191;-75
2023/09/22 10:16:08;;;;;;;12.40;5.80;;;;;;;28.19;44.76;97067.25;5029653;28;20203;-76
2023/09/22 10:18:51;;;;;;;8.23;4.70;;;;;;;28.23;44.87;97049.88;5029197;28;20206;-87
2023/09/22 10:21:46;;;;;;;11.67;4.73;;;;;;;28.26;44.91;97052.19;5032754;28;20309;-77
2023/09/22 10:24:16;;;;;;;9.80;4.83;;;;;;;28.38;44.91;97061.38;5052172;28;20210;-86
2023/09/22 10:26:56;;;;;;;27.00;13.00;;;;;;;28.69;44.83;97054.13;5042353;28;20213;-86
2023/09/22 10:29:33;;;;;;;12.77;5.83;;;;;;;28.78;44.54;97058.38;5051956;28;20198;-79
2023/09/22 10:32:24;;;;;;;7.20;4.30;;;;;;;28.36;44.66;97059.94;5046672;28;20194;-83
2023/09/22 10:35:05;;;;;;;12.97;4.37;;;;;;;28.42;44.71;97051.22;5041810;28;20178;-83
2023/09/22 10:37:36;;;;;;;19.43;9.27;;;;;;;28.59;44.82;97050.91;5049901;28;20201;-75
2023/09/22 10:40:12;;;;;;;7.53;3.57;;;;;;;28.68;43.31;97043.66;5045726;28;20226;-74
2023/09/22 10:42:50;;;;;;;8.20;4.10;;;;;;;28.47;44.33;97023.00;5050450;28;20298;-80
2023/09/22 10:45:25;;;;;;;8.53;4.30;;;;;;;28.65;43.41;97031.53;5047487;28;20193;-83
2023/09/22 10:47:52;;;;;;;8.73;4.00;;;;;;;28.78;42.94;97020.22;5047231;28;20215;-80
2023/09/22 10:50:31;;;;;;;17.10;9.03;;;;;;;29.05;43.34;97022.25;5047593;28;20216;-80
2023/09/22 10:53:03;;;;;;;8.63;3.77;;;;;;;28.85;43.54;97026.50;5044896;28;20198;-78
2023/09/22 10:55:42;;;;;;;6.23;3.73;;;;;;;29.06;42.67;97023.88;5037891;28;20217;-80
2023/09/22 10:58:18;;;;;;;7.20;4.23;;;;;;;28.54;44.12;97013.25;5049707;28;20257;-85
2023/09/22 11:01:08;;;;;;;7.83;5.00;;;;;;;28.92;42.99;97009.56;5045385;28;20705;-78
2023/09/22 11:03:36;;;;;;;7.63;4.07;;;;;;;28.87;43.22;97009.28;5048906;28;20217;-81
2023/09/22 11:06:06;;;;;;;5.80;3.63;;;;;;;28.62;44.11;96997.25;5050012;28;20201;-79
2023/09/22 11:08:51;;;;;;;10.30;3.97;;;;;;;28.70;44.56;97009.66;5033777;28;20208;-74
2023/09/22 11:11:19;;;;;;;12.50;6.10;;;;;;;28.99;43.98;97004.31;5028757;28;20291;-78
2023/09/22 11:13:52;;;;;;;9.03;3.70;;;;;;;28.99;43.05;96998.97;5026150;28;20682;-82
2023/09/22 11:16:21;;;;;;;7.73;4.13;;;;;;;29.35;41.30;96999.88;5028093;28;20202;-79
2023/09/22 11:18:48;;;;;;;8.87;3.60;;;;;;;29.14;41.95;96993.63;5025689;28;20199;-77
2023/09/22 11:21:16;;;;;;;8.73;3.50;;;;;;;29.30;41.76;96998.78;5028366;28;20203;-78
2023/09/22 11:23:44;;;;;;;11.20;4.10;;;;;;;29.43;41.50;96990.94;5026876;28;20524;-74
2023/09/22 11:26:13;;;;;;;9.20;3.87;;;;;;;29.43;41.75;96994.41;5039652;28;20725;-79
2023/09/22 11:28:43;;;;;;;8.50;4.30;;;;;;;29.56;40.85;96988.41;5048097;28;20193;-85
2023/09/22 11:31:14;;;;;;;8.83;3.50;;;;;;;29.69;40.76;96985.88;5046786;28;20203;-77
2023/09/22 11:33:43;;;;;;;10.87;4.00;;;;;;;29.96;40.28;96979.78;5046838;28;20194;-78
2023/09/22 11:36:12;;;;;;;9.33;3.93;;;;;;;29.71;40.47;96981.16;5046236;28;20202;-77
2023/09/22 11:38:45;;;;;;;7.33;4.13;;;;;;;29.80;40.74;96964.00;5047518;28;20202;-80
2023/09/22 11:41:17;;;;;;;9.27;4.60;;;;;;;29.63;40.63;96975.94;5045302;28;20625;-79